Time;durP1;ratioP1;P1;durP2;ratioP2;P2;SDS_P1;SDS_P2;PMS_P1;PMS_P2;Temp;Humidity;BMP_temperature;BMP_pressure;BME280_temperature;BME280_humidity;BME280_pressure;Samples;Min_cycle;Max_cycle;Signal;HPM_P1;HPM_P2
2023/08/31 00:01:03;;;;;;;3.57;1.63;;;;;16.40;96296.00;;;;5059942;28;20197;-85
2023/08/31 00:03:52;;;;;;;1.47;1.30;;;;;16.40;96285.00;;;;5047913;28;20203;-87
2023/08/31 00:06:44;;;;;;;1.87;1.63;;;;;16.30;96287.00;;;;5045600;28;20704;-87
2023/08/31 00:09:34;;;;;;;2.03;1.90;;;;;16.10;96283.00;;;;5045257;28;20208;-86
2023/08/31 00:12:23;;;;;;;1.50;1.40;;;;;15.90;96289.00;;;;5051513;28;20236;-85
2023/08/31 00:15:13;;;;;;;2.13;1.60;;;;;16.10;96293.00;;;;5050653;28;20208;-87
2023/08/31 00:18:03;;;;;;;1.60;1.50;;;;;16.10;96291.00;;;;5051976;28;20192;-86
2023/08/31 00:20:52;;;;;;;2.03;1.83;;;;;16.10;96295.00;;;;5046306;28;20258;-86
2023/08/31 00:23:43;;;;;;;2.97;1.63;;;;;16.10;96290.00;;;;5051613;28;20231;-85
2023/08/31 00:26:33;;;;;;;1.40;1.30;;;;;16.20;96299.00;;;;5052805;28;20205;-86
2023/08/31 00:29:23;;;;;;;3.77;1.80;;;;;16.10;96297.00;;;;5050495;28;20212;-86
2023/08/31 00:32:13;;;;;;;1.90;1.80;;;;;16.10;96295.00;;;;5067187;28;20235;-86
2023/08/31 00:35:03;;;;;;;1.97;1.70;;;;;16.10;96292.00;;;;5051295;28;20581;-87
2023/08/31 00:37:52;;;;;;;7.00;2.50;;;;;16.10;96286.00;;;;5046939;28;20205;-86
2023/08/31 00:40:45;;;;;;;1.70;1.60;;;;;16.10;96285.00;;;;5054193;28;20204;-86
2023/08/31 00:43:34;;;;;;;1.90;1.73;;;;;16.00;96284.00;;;;5049998;28;20286;-86
2023/08/31 00:46:23;;;;;;;1.83;1.60;;;;;16.00;96290.00;;;;5064800;28;20212;-85
2023/08/31 00:49:14;;;;;;;7.47;2.00;;;;;16.00;96289.00;;;;5077572;28;20215;-85
2023/08/31 00:52:04;;;;;;;1.50;1.40;;;;;16.00;96298.00;;;;5066267;28;20232;-85
2023/08/31 00:54:54;;;;;;;1.50;1.40;;;;;15.80;96296.00;;;;5057702;28;20200;-86
2023/08/31 00:57:45;;;;;;;2.13;1.70;;;;;15.90;96293.00;;;;5046266;28;20824;-88
2023/08/31 01:00:45;;;;;;;1.77;1.67;;;;;15.80;96305.00;;;;5044676;28;20208;-85
2023/08/31 01:03:44;;;;;;;1.93;1.83;;;;;15.90;96298.00;;;;5044959;28;20231;-85
2023/08/31 01:06:41;;;;;;;1.93;1.70;;;;;15.90;96298.00;;;;5044477;28;20271;-86
2023/08/31 01:09:36;;;;;;;3.57;1.70;;;;;15.90;96303.00;;;;5052224;28;20211;-85
2023/08/31 01:12:33;;;;;;;1.83;1.73;;;;;15.90;96308.00;;;;5042391;28;20227;-86
2023/08/31 01:15:24;;;;;;;2.37;1.97;;;;;16.00;96308.00;;;;5049888;28;20201;-85
2023/08/31 01:18:14;;;;;;;1.70;1.60;;;;;16.00;96321.00;;;;5057719;28;20205;-86
2023/08/31 01:21:10;;;;;;;1.90;1.70;;;;;16.00;96324.00;;;;5048411;28;20685;-87
2023/08/31 01:24:00;;;;;;;2.03;1.83;;;;;16.00;96323.00;;;;5049180;28;20235;-87
2023/08/31 01:26:49;;;;;;;2.27;1.73;;;;;16.00;96320.00;;;;5044946;28;20192;-87
2023/08/31 01:29:39;;;;;;;2.10;2.00;;;;;16.00;96322.00;;;;5042890;28;20205;-86
2023/08/31 01:32:28;;;;;;;6.10;1.70;;;;;16.00;96326.00;;;;5049531;28;20216;-86
2023/08/31 01:35:19;;;;;;;1.67;1.53;;;;;15.90;96320.00;;;;5050102;28;20215;-88
2023/08/31 01:38:09;;;;;;;5.37;2.00;;;;;15.70;96327.00;;;;5058298;28;20200;-87
2023/08/31 01:41:04;;;;;;;2.07;1.87;;;;;15.60;96323.00;;;;5050423;28;20201;-86
2023/08/31 01:43:53;;;;;;;3.37;2.03;;;;;15.40;96314.00;;;;5054620;28;20223;-88
2023/08/31 01:46:43;;;;;;;2.20;2.00;;;;;15.60;96317.00;;;;5049951;28;20579;-85
2023/08/31 01:49:37;;;;;;;3.30;2.17;;;;;15.70;96316.00;;;;5042223;28;20205;-85
2023/08/31 01:52:26;;;;;;;2.33;2.03;;;;;15.70;96315.00;;;;5050600;28;20227;-85
2023/08/31 01:55:16;;;;;;;1.90;1.67;;;;;15.70;96311.00;;;;5049037;28;20219;-86
2023/08/31 01:58:06;;;;;;;4.33;2.33;;;;;15.80;96317.00;;;;5049230;28;20219;-86
2023/08/31 02:00:56;;;;;;;2.73;2.53;;;;;15.70;96317.00;;;;5049566;28;20197;-86
2023/08/31 02:03:45;;;;;;;2.93;2.60;;;;;15.80;96317.00;;;;5063202;28;20689;-87
2023/08/31 02:06:34;;;;;;;5.57;1.70;;;;;15.50;96315.00;;;;5054832;28;20720;-86
2023/08/31 02:09:23;;;;;;;2.20;1.83;;;;;15.50;96326.00;;;;5049742;28;20200;-86
2023/08/31 02:12:12;;;;;;;5.10;2.17;;;;;15.60;96331.00;;;;5048658;28;20254;-85
2023/08/31 02:15:03;;;;;;;2.37;2.10;;;;;15.70;96330.00;;;;5049813;28;20196;-86
2023/08/31 02:17:52;;;;;;;2.10;1.80;;;;;15.70;96328.00;;;;5044304;28;20197;-86
2023/08/31 02:20:41;;;;;;;2.10;1.90;;;;;15.50;96328.00;;;;5047900;28;20673;-87
2023/08/31 02:23:30;;;;;;;1.93;1.60;;;;;15.50;96331.00;;;;5057514;28;20228;-86
2023/08/31 02:26:20;;;;;;;1.93;1.83;;;;;15.50;96331.00;;;;5059041;28;20696;-86
2023/08/31 02:29:09;;;;;;;5.00;2.27;;;;;15.60;96333.00;;;;5059409;28;20204;-86
2023/08/31 02:32:00;;;;;;;1.90;1.50;;;;;15.60;96333.00;;;;5049385;28;20228;-87
2023/08/31 02:34:49;;;;;;;2.97;2.10;;;;;15.60;96340.00;;;;5044064;28;20189;-86
2023/08/31 02:37:38;;;;;;;2.17;1.93;;;;;15.40;96344.00;;;;5047426;28;20589;-86
2023/08/31 02:40:27;;;;;;;8.93;1.83;;;;;15.60;96342.00;;;;5049402;28;20201;-86
2023/08/31 02:43:16;;;;;;;6.53;2.23;;;;;15.70;96340.00;;;;5048225;28;20220;-86
2023/08/31 02:46:05;;;;;;;3.07;2.23;;;;;15.60;96346.00;;;;5057244;28;20196;-85
2023/08/31 02:48:56;;;;;;;3.63;1.90;;;;;15.60;96351.00;;;;5052882;28;20204;-86
2023/08/31 02:51:45;;;;;;;2.20;2.00;;;;;15.70;96352.00;;;;5048117;28;20420;-87
2023/08/31 02:54:34;;;;;;;2.17;1.93;;;;;15.70;96360.00;;;;5052681;28;20204;-86
2023/08/31 02:57:23;;;;;;;4.40;2.00;;;;;15.70;96359.00;;;;5049777;28;20853;-88
2023/08/31 03:00:13;;;;;;;2.43;1.73;;;;;15.70;96355.00;;;;5047650;28;20205;-86
2023/08/31 03:03:02;;;;;;;2.30;2.13;;;;;15.70;96364.00;;;;5047162;28;20216;-86
2023/08/31 03:05:57;;;;;;;3.97;1.90;;;;;15.40;96359.00;;;;5049289;28;20795;-85
2023/08/31 03:08:46;;;;;;;4.87;2.10;;;;;15.60;96358.00;;;;5043186;28;20204;-86
2023/08/31 03:11:35;;;;;;;1.97;1.77;;;;;15.60;96359.00;;;;5046179;28;20204;-86
2023/08/31 03:14:24;;;;;;;2.67;1.87;;;;;15.40;96364.00;;;;5057341;28;20200;-86
2023/08/31 03:17:13;;;;;;;3.43;2.60;;;;;15.20;96364.00;;;;5057448;28;20594;-86
2023/08/31 03:20:06;;;;;;;2.03;1.83;;;;;15.40;96358.00;;;;5050602;28;20207;-85
2023/08/31 03:22:56;;;;;;;2.97;2.77;;;;;15.50;96364.00;;;;5046023;28;20223;-85
2023/08/31 03:25:45;;;;;;;1.80;1.70;;;;;15.30;96358.00;;;;5048109;28;20205;-87
2023/08/31 03:28:34;;;;;;;2.33;1.80;;;;;15.30;96368.00;;;;5046029;28;20215;-86
2023/08/31 03:31:23;;;;;;;5.50;2.23;;;;;15.40;96369.00;;;;5056077;28;20201;-85
2023/08/31 03:34:12;;;;;;;2.97;2.13;;;;;15.40;96375.00;;;;5056467;28;20589;-86
2023/08/31 03:37:01;;;;;;;2.10;1.90;;;;;15.40;96372.00;;;;5055702;28;20787;-85
2023/08/31 03:39:51;;;;;;;3.10;2.10;;;;;15.40;96376.00;;;;5055057;28;20211;-86
2023/08/31 03:42:40;;;;;;;2.97;2.00;;;;;15.40;96379.00;;;;5045949;28;20220;-85
2023/08/31 03:45:29;;;;;;;2.77;2.53;;;;;15.40;96381.00;;;;5044120;28;20713;-85
2023/08/31 03:48:18;;;;;;;2.57;1.60;;;;;15.30;96379.00;;;;5054034;28;20662;-85
2023/08/31 03:51:07;;;;;;;3.80;2.13;;;;;15.40;96374.00;;;;5063754;28;20208;-87
2023/08/31 03:53:56;;;;;;;3.07;2.50;;;;;15.40;96381.00;;;;5060486;28;20685;-84
2023/08/31 03:56:47;;;;;;;2.23;2.03;;;;;15.30;96384.00;;;;5052638;28;20203;-85
2023/08/31 03:59:36;;;;;;;2.37;2.10;;;;;15.20;96376.00;;;;5050738;28;20204;-85
2023/08/31 04:02:25;;;;;;;5.53;2.13;;;;;15.40;96379.00;;;;5059715;28;20279;-87
2023/08/31 04:05:15;;;;;;;2.50;2.20;;;;;15.40;96389.00;;;;5068684;28;20223;-86
2023/08/31 04:08:04;;;;;;;6.60;2.50;;;;;15.40;96385.00;;;;5052773;28;20204;-86
2023/08/31 04:10:53;;;;;;;2.47;2.20;;;;;15.40;96389.00;;;;5047129;28;20701;-86
2023/08/31 04:13:43;;;;;;;3.77;1.90;;;;;15.40;96389.00;;;;5047414;28;20247;-87
2023/08/31 04:16:33;;;;;;;2.67;2.47;;;;;15.40;96389.00;;;;5062457;28;20200;-87
2023/08/31 04:19:22;;;;;;;4.40;2.87;;;;;15.50;96392.00;;;;5054082;28;20204;-87
2023/08/31 04:22:12;;;;;;;4.30;2.53;;;;;15.50;96397.00;;;;5051588;28;20232;-87
2023/08/31 04:25:01;;;;;;;3.37;2.63;;;;;15.40;96404.00;;;;5052506;28;20223;-87
2023/08/31 04:27:50;;;;;;;3.10;2.13;;;;;15.20;96399.00;;;;5047309;28;20201;-87
2023/08/31 04:30:41;;;;;;;2.73;2.53;;;;;14.80;96394.00;;;;5054142;28;20215;-87
2023/08/31 04:33:30;;;;;;;2.67;2.47;;;;;14.80;96406.00;;;;5073726;28;20216;-87
2023/08/31 04:36:19;;;;;;;3.17;1.73;;;;;15.10;96399.00;;;;5054712;28;20197;-88
2023/08/31 04:39:08;;;;;;;2.73;2.47;;;;;15.30;96399.00;;;;5053127;28;20197;-87
2023/08/31 04:41:57;;;;;;;3.90;2.83;;;;;15.40;96408.00;;;;5053105;28;20224;-87
2023/08/31 04:44:46;;;;;;;3.00;2.60;;;;;15.40;96408.00;;;;5047618;28;20231;-86
2023/08/31 04:47:37;;;;;;;2.97;2.67;;;;;15.50;96410.00;;;;5050404;28;20206;-87
2023/08/31 04:50:26;;;;;;;3.53;3.00;;;;;15.50;96405.00;;;;5061306;28;20208;-87
2023/08/31 04:53:15;;;;;;;4.07;2.83;;;;;15.50;96415.00;;;;5052813;28;20224;-87
2023/08/31 04:56:04;;;;;;;2.50;2.30;;;;;15.40;96415.00;;;;5051641;28;20583;-87
2023/08/31 04:58:54;;;;;;;2.67;2.40;;;;;15.40;96406.00;;;;5047523;28;20580;-87
2023/08/31 05:01:43;;;;;;;3.93;2.53;;;;;15.50;96412.00;;;;5051062;28;20929;-87
2023/08/31 05:04:33;;;;;;;2.30;2.20;;;;;15.50;96419.00;;;;5052382;28;20255;-87
2023/08/31 05:07:22;;;;;;;4.37;2.97;;;;;15.60;96428.00;;;;5051616;28;20209;-88
2023/08/31 05:10:11;;;;;;;7.23;2.63;;;;;15.50;96422.00;;;;5060480;28;20208;-86
2023/08/31 05:13:00;;;;;;;3.50;2.70;;;;;15.50;96435.00;;;;5060890;28;20220;-87
2023/08/31 05:15:49;;;;;;;2.20;2.03;;;;;15.50;96431.00;;;;5046891;28;20197;-87
2023/08/31 05:18:39;;;;;;;7.47;2.67;;;;;15.60;96431.00;;;;5051403;28;20208;-86
2023/08/31 05:21:30;;;;;;;3.80;2.07;;;;;15.70;96431.00;;;;5051823;28;20205;-86
2023/08/31 05:24:19;;;;;;;8.03;2.70;;;;;15.60;96439.00;;;;5082631;28;20211;-87
2023/08/31 05:27:08;;;;;;;4.13;2.20;;;;;15.60;96444.00;;;;5090070;28;20196;-86
2023/08/31 05:29:57;;;;;;;4.23;2.50;;;;;15.60;96443.00;;;;5059446;28;20197;-87
2023/08/31 05:32:46;;;;;;;5.13;2.37;;;;;15.70;96452.00;;;;5057158;28;20220;-87
2023/08/31 05:35:38;;;;;;;2.10;1.90;;;;;15.60;96452.00;;;;5052744;28;20197;-87
2023/08/31 05:38:28;;;;;;;2.87;2.40;;;;;15.60;96447.00;;;;5053127;28;20208;-87
2023/08/31 05:41:17;;;;;;;2.97;2.77;;;;;15.60;96452.00;;;;5057027;28;20208;-88
2023/08/31 05:44:07;;;;;;;3.63;2.87;;;;;15.60;96449.00;;;;5068468;28;20208;-87
2023/08/31 05:46:56;;;;;;;2.60;2.40;;;;;15.30;96458.00;;;;5048751;28;20208;-87
2023/08/31 05:49:45;;;;;;;4.00;2.33;;;;;15.30;96456.00;;;;5047327;28;20221;-87
2023/08/31 05:52:34;;;;;;;2.17;1.97;;;;;15.20;96450.00;;;;5054662;28;20216;-88
2023/08/31 05:55:24;;;;;;;2.40;2.20;;;;;15.40;96454.00;;;;5052549;28;20598;-86
2023/08/31 05:58:13;;;;;;;2.73;2.30;;;;;15.50;96455.00;;;;5052295;28;20217;-87
2023/08/31 06:01:02;;;;;;;2.57;2.37;;;;;15.70;96455.00;;;;5060083;28;20212;-86
2023/08/31 06:03:51;;;;;;;3.60;2.43;;;;;15.50;96453.00;;;;5056916;28;20281;-87
2023/08/31 06:06:41;;;;;;;3.10;2.90;;;;;15.70;96454.00;;;;5046903;28;20603;-88
2023/08/31 06:09:30;;;;;;;3.80;3.37;;;;;15.90;96463.00;;;;5055844;28;20193;-87
2023/08/31 06:12:20;;;;;;;5.00;3.20;;;;;16.10;96462.00;;;;5050001;28;20231;-88
2023/08/31 06:15:10;;;;;;;4.47;3.40;;;;;16.20;96470.00;;;;5058177;28;20203;-88
2023/08/31 06:17:59;;;;;;;4.03;3.17;;;;;16.20;96476.00;;;;5054346;28;20207;-86
2023/08/31 06:20:49;;;;;;;3.90;3.50;;;;;16.40;96477.00;;;;5052354;28;20196;-86
2023/08/31 06:23:38;;;;;;;4.07;3.53;;;;;16.50;96478.00;;;;5049055;28;20220;-86
2023/08/31 06:26:27;;;;;;;6.17;4.77;;;;;16.60;96475.00;;;;5048123;28;20251;-86
2023/08/31 06:29:18;;;;;;;6.83;4.07;;;;;16.90;96470.00;;;;5050363;28;20238;-86
2023/08/31 06:32:07;;;;;;;7.73;4.83;;;;;17.20;96483.00;;;;5049380;28;20232;-86
2023/08/31 06:34:56;;;;;;;4.10;3.63;;;;;16.70;96477.00;;;;5057155;28;20680;-87
2023/08/31 06:37:46;;;;;;;5.43;3.83;;;;;16.70;96488.00;;;;5058330;28;20298;-87
2023/08/31 06:40:35;;;;;;;6.07;4.07;;;;;16.90;96485.00;;;;5042372;28;20201;-87
2023/08/31 06:43:25;;;;;;;3.70;3.40;;;;;17.10;96488.00;;;;5049299;28;20217;-87
2023/08/31 06:46:15;;;;;;;3.90;3.30;;;;;17.40;96484.00;;;;5049030;28;20255;-89
2023/08/31 06:49:10;;;;;;;8.30;3.80;;;;;17.90;96489.00;;;;5047033;28;20258;-85
2023/08/31 06:51:59;;;;;;;4.57;4.10;;;;;18.00;96494.00;;;;5045434;28;20232;-87
2023/08/31 06:54:48;;;;;;;7.60;3.97;;;;;18.40;96487.00;;;;5053588;28;20212;-87
2023/08/31 06:57:37;;;;;;;6.47;3.70;;;;;18.70;96491.00;;;;5042763;28;20216;-87
2023/08/31 07:00:26;;;;;;;6.60;4.53;;;;;19.30;96483.00;;;;5054961;28;20379;-87
2023/08/31 07:03:17;;;;;;;4.13;3.73;;;;;19.30;96485.00;;;;5050598;28;20231;-88
2023/08/31 07:06:06;;;;;;;3.50;3.20;;;;;19.40;96485.00;;;;5058283;28;20223;-87
2023/08/31 07:08:55;;;;;;;5.87;4.57;;;;;19.70;96485.00;;;;5051677;28;20205;-87
2023/08/31 07:11:44;;;;;;;6.20;3.70;;;;;19.60;96493.00;;;;5047535;28;20220;-88
2023/08/31 07:14:33;;;;;;;3.93;3.33;;;;;19.60;96491.00;;;;5048143;28;20704;-87
2023/08/31 07:17:22;;;;;;;6.90;3.47;;;;;19.40;96504.00;;;;5050792;28;20205;-87
2023/08/31 07:20:13;;;;;;;3.77;3.47;;;;;19.40;96508.00;;;;5049554;28;20204;-88
2023/08/31 07:23:02;;;;;;;4.43;3.60;;;;;19.40;96505.00;;;;5048617;28;20224;-87
2023/08/31 07:25:51;;;;;;;8.77;3.50;;;;;19.50;96501.00;;;;5041797;28;20223;-87
2023/08/31 07:28:40;;;;;;;3.67;3.13;;;;;19.50;96505.00;;;;5042404;28;20196;-87
2023/08/31 07:31:29;;;;;;;3.87;2.80;;;;;19.00;96510.00;;;;5043941;28;20586;-89
2023/08/31 07:34:19;;;;;;;3.47;3.17;;;;;19.40;96511.00;;;;5044669;28;20201;-87
2023/08/31 07:37:09;;;;;;;4.90;2.90;;;;;19.70;96517.00;;;;5063531;28;20203;-90
2023/08/31 07:39:58;;;;;;;7.67;2.77;;;;;19.90;96516.00;;;;5043085;28;20553;-88
2023/08/31 07:42:47;;;;;;;4.03;3.03;;;;;20.20;96506.00;;;;5042369;28;20697;-87
2023/08/31 07:45:36;;;;;;;5.87;2.70;;;;;20.50;96520.00;;;;5059972;28;20231;-87
2023/08/31 07:48:25;;;;;;;5.37;3.53;;;;;20.60;96521.00;;;;5051471;28;20499;-88
2023/08/31 07:51:14;;;;;;;4.37;3.33;;;;;20.60;96527.00;;;;5058173;28;20337;-88
2023/08/31 07:54:05;;;;;;;4.60;2.90;;;;;20.80;96535.00;;;;5048059;28;20209;-87
2023/08/31 07:56:54;;;;;;;6.67;3.97;;;;;20.80;96540.00;;;;5048415;28;20199;-90
2023/08/31 07:59:43;;;;;;;3.67;2.97;;;;;20.90;96549.00;;;;5041395;28;20215;-88
2023/08/31 08:02:32;;;;;;;3.97;2.43;;;;;21.10;96547.00;;;;5044579;28;20228;-88
2023/08/31 08:05:21;;;;;;;2.83;2.50;;;;;20.80;96547.00;;;;5045195;28;20209;-88
2023/08/31 08:08:11;;;;;;;3.80;3.30;;;;;20.80;96543.00;;;;5056060;28;20196;-89
2023/08/31 08:11:02;;;;;;;3.53;2.93;;;;;20.90;96545.00;;;;5049750;28;20203;-88
2023/08/31 08:13:51;;;;;;;4.37;3.13;;;;;21.40;96556.00;;;;5051667;28;20455;-87
2023/08/31 08:16:40;;;;;;;2.83;2.63;;;;;21.50;96554.00;;;;5047978;28;20212;-88
2023/08/31 08:19:29;;;;;;;6.47;3.07;;;;;21.40;96561.00;;;;5042296;28;20558;-87
2023/08/31 08:22:18;;;;;;;4.73;1.70;;;;;21.10;96548.00;;;;5061074;28;20231;-88
2023/08/31 08:25:08;;;;;;;2.60;2.17;;;;;21.80;96559.00;;;;5061450;28;20220;-88
2023/08/31 08:27:58;;;;;;;3.03;2.13;;;;;22.00;96557.00;;;;5047896;28;20658;-88
2023/08/31 08:30:48;;;;;;;3.73;2.23;;;;;21.80;96564.00;;;;5045735;28;20624;-89
2023/08/31 08:33:37;;;;;;;2.33;2.00;;;;;22.10;96566.00;;;;5044363;28;20614;-89
2023/08/31 08:36:26;;;;;;;2.10;1.90;;;;;22.20;96568.00;;;;5049128;28;20212;-87
2023/08/31 08:39:15;;;;;;;2.80;1.90;;;;;22.40;96572.00;;;;5050846;28;20227;-88
2023/08/31 08:42:06;;;;;;;1.67;1.57;;;;;22.60;96567.00;;;;5058382;28;20223;-88
2023/08/31 08:44:58;;;;;;;2.50;1.77;;;;;22.90;96572.00;;;;5046896;28;20696;-88
2023/08/31 08:47:49;;;;;;;3.83;2.23;;;;;22.90;96574.00;;;;5043254;28;20227;-88
2023/08/31 08:50:39;;;;;;;3.60;1.57;;;;;23.10;96570.00;;;;5046009;28;20200;-88
2023/08/31 08:53:28;;;;;;;2.37;1.97;;;;;23.30;96569.00;;;;5061938;28;20227;-88
2023/08/31 08:56:17;;;;;;;2.00;1.67;;;;;23.10;96584.00;;;;5049077;28;20208;-87
2023/08/31 08:59:07;;;;;;;3.20;1.43;;;;;23.50;96583.00;;;;5059223;28;20212;-88
2023/08/31 09:01:57;;;;;;;14.83;2.47;;;;;24.00;96591.00;;;;5045052;28;20224;-89
2023/08/31 09:04:46;;;;;;;1.70;1.40;;;;;24.00;96583.00;;;;5047894;28;20196;-89
2023/08/31 09:07:37;;;;;;;10.93;2.80;;;;;24.40;96586.00;;;;5058969;28;20224;-90
2023/08/31 09:10:31;;;;;;;3.13;1.63;;;;;23.80;96602.00;;;;5050496;28;20220;-90
2023/08/31 09:13:21;;;;;;;1.97;1.73;;;;;24.00;96593.00;;;;5051465;28;20228;-92
2023/08/31 09:16:26;;;;;;;1.77;1.20;;;;;23.70;96582.00;;;;5055741;28;20205;-90
2023/08/31 09:19:24;;;;;;;1.60;1.30;;;;;24.20;96592.00;;;;5050927;28;20211;-89
2023/08/31 09:22:13;;;;;;;1.77;1.23;;;;;23.80;96600.00;;;;5047414;28;20224;-88
2023/08/31 09:25:02;;;;;;;1.47;1.30;;;;;23.60;96586.00;;;;5052344;28;20208;-91
2023/08/31 09:27:51;;;;;;;1.97;1.20;;;;;24.50;96592.00;;;;5049459;28;20216;-91
2023/08/31 09:30:42;;;;;;;1.50;1.40;;;;;24.90;96587.00;;;;5025055;28;20307;-90
2023/08/31 09:33:32;;;;;;;2.43;1.73;;;;;25.50;96591.00;;;;5049317;28;20228;-91
2023/08/31 09:36:23;;;;;;;2.37;1.47;;;;;24.70;96602.00;;;;5048216;28;20208;-88
2023/08/31 09:39:14;;;;;;;2.50;1.60;;;;;24.90;96592.00;;;;5048991;28;20197;-89
2023/08/31 09:42:04;;;;;;;1.20;1.10;;;;;25.70;96587.00;;;;5051520;28;20228;-90
2023/08/31 09:44:53;;;;;;;2.33;1.60;;;;;25.30;96611.00;;;;5046989;28;20731;-90
2023/08/31 09:47:42;;;;;;;1.83;1.73;;;;;25.20;96590.00;;;;5050813;28;20228;-89
2023/08/31 09:50:33;;;;;;;1.57;1.47;;;;;26.00;96593.00;;;;5051330;28;20273;-90
2023/08/31 09:53:26;;;;;;;1.60;1.20;;;;;26.40;96589.00;;;;5049882;28;20243;-90
2023/08/31 09:56:21;;;;;;;1.97;1.53;;;;;26.50;96588.00;;;;5059183;28;20204;-89
2023/08/31 09:59:11;;;;;;;2.23;2.00;;;;;26.80;96589.00;;;;5046862;28;20216;-90
2023/08/31 10:02:01;;;;;;;2.73;1.97;;;;;27.40;96591.00;;;;5058266;28;20208;-93
2023/08/31 10:04:52;;;;;;;2.33;1.30;;;;;27.50;96591.00;;;;5080591;28;20180;-92
2023/08/31 10:07:41;;;;;;;1.90;1.53;;;;;27.80;96610.00;;;;5066730;28;20222;-91
2023/08/31 10:10:32;;;;;;;2.00;1.20;;;;;27.40;96610.00;;;;5072282;23;20237;-89
2023/08/31 10:13:21;;;;;;;2.10;1.60;;;;;27.50;96605.00;;;;5069881;28;20207;-89
2023/08/31 10:16:12;;;;;;;1.67;1.50;;;;;26.90;96607.00;;;;5049901;28;20213;-90
2023/08/31 10:19:01;;;;;;;1.53;1.27;;;;;26.70;96594.00;;;;5046894;28;20204;-91
2023/08/31 10:21:51;;;;;;;1.77;1.43;;;;;25.00;96619.00;;;;5047172;28;20214;-90
2023/08/31 10:24:59;;;;;;;1.80;1.33;;;;;25.40;96623.00;;;;5053480;28;20217;-91
2023/08/31 10:27:51;;;;;;;4.73;1.60;;;;;25.40;96621.00;;;;5049082;28;20240;-89
2023/08/31 10:30:40;;;;;;;1.80;1.60;;;;;25.10;96623.00;;;;5046562;28;20204;-89
2023/08/31 10:33:31;;;;;;;2.30;1.37;;;;;24.70;96625.00;;;;5048005;28;20258;-90
2023/08/31 10:36:23;;;;;;;1.67;1.40;;;;;23.10;96620.00;;;;5056572;28;20491;-90
2023/08/31 10:39:15;;;;;;;1.20;1.00;;;;;22.20;96619.00;;;;5049711;28;20227;-88
2023/08/31 10:42:22;;;;;;;1.73;1.50;;;;;22.00;96620.00;;;;5048561;28;20607;-89
2023/08/31 10:45:33;;;;;;;1.37;1.27;;;;;22.30;96627.00;;;;5050694;28;20708;-91
2023/08/31 10:48:22;;;;;;;1.90;1.70;;;;;22.20;96632.00;;;;5050171;28;20220;-89
2023/08/31 10:51:18;;;;;;;2.07;1.60;;;;;22.40;96620.00;;;;5047453;28;20201;-90
2023/08/31 10:54:13;;;;;;;2.10;1.70;;;;;22.50;96621.00;;;;5049702;28;20224;-90
2023/08/31 10:57:05;;;;;;;1.50;1.40;;;;;23.00;96612.00;;;;5042369;28;20203;-90
2023/08/31 10:59:58;;;;;;;1.47;1.37;;;;;23.20;96608.00;;;;5046256;28;20224;-89
2023/08/31 11:02:50;;;;;;;2.73;1.63;;;;;23.60;96609.00;;;;5052989;28;20203;-90
2023/08/31 11:05:52;;;;;;;1.73;1.27;;;;;23.40;96605.00;;;;5046075;28;20228;-90
2023/08/31 11:08:43;;;;;;;1.63;1.53;;;;;24.00;96613.00;;;;5051150;28;20673;-89
2023/08/31 11:11:39;;;;;;;1.97;1.23;;;;;24.00;96604.00;;;;5050404;28;20205;-89
2023/08/31 11:14:29;;;;;;;1.80;1.70;;;;;24.60;96601.00;;;;5052013;28;20273;-90
2023/08/31 11:17:18;;;;;;;2.30;1.33;;;;;26.00;96568.00;;;;5050107;28;20201;-90
2023/08/31 11:20:10;;;;;;;1.23;1.13;;;;;27.20;96556.00;;;;5050219;28;20215;-91
2023/08/31 11:22:59;;;;;;;1.93;1.27;;;;;27.10;96554.00;;;;5050680;28;20216;-89
2023/08/31 11:25:49;;;;;;;1.10;1.00;;;;;27.10;96604.00;;;;5042121;28;20649;-90
2023/08/31 11:28:39;;;;;;;2.30;1.20;;;;;27.20;96559.00;;;;5048013;28;20226;-90
2023/08/31 11:31:28;;;;;;;1.50;1.40;;;;;28.10;96610.00;;;;5051065;28;20218;-90
2023/08/31 11:34:19;;;;;;;1.93;1.40;;;;;26.80;96605.00;;;;5048726;28;20238;-90
2023/08/31 11:37:11;;;;;;;2.13;1.40;;;;;26.50;96612.00;;;;5055496;28;20772;-90
2023/08/31 11:40:09;;;;;;;1.63;1.23;;;;;26.10;96622.00;;;;5050792;28;20294;-89
2023/08/31 11:43:08;;;;;;;1.50;1.40;;;;;26.10;96625.00;;;;5048147;28;20201;-89
2023/08/31 11:46:05;;;;;;;1.40;1.30;;;;;26.10;96615.00;;;;5052903;28;20222;-89
2023/08/31 11:49:04;;;;;;;2.40;1.70;;;;;27.10;96555.00;;;;5048319;28;20219;-89
2023/08/31 11:51:53;;;;;;;1.83;1.43;;;;;26.90;96624.00;;;;5054659;28;20279;-89
2023/08/31 11:54:49;;;;;;;1.37;1.20;;;;;25.80;96616.00;;;;5052645;28;20612;-89
2023/08/31 11:57:39;;;;;;;1.90;1.47;;;;;25.40;96620.00;;;;5055154;28;20203;-89
2023/08/31 12:00:29;;;;;;;2.00;1.63;;;;;25.40;96631.00;;;;5063378;28;20223;-89
2023/08/31 12:03:23;;;;;;;2.00;1.40;;;;;24.30;96626.00;;;;5057423;28;20211;-89
2023/08/31 12:06:21;;;;;;;2.47;1.30;;;;;24.20;96641.00;;;;5051736;28;20262;-90
2023/08/31 12:09:11;;;;;;;2.17;1.60;;;;;24.10;96641.00;;;;5052734;28;20233;-89
2023/08/31 12:12:04;;;;;;;1.47;1.33;;;;;23.90;96637.00;;;;5050132;28;20219;-89
2023/08/31 12:14:55;;;;;;;1.60;1.50;;;;;24.20;96634.00;;;;5035030;28;20606;-89
2023/08/31 12:17:50;;;;;;;2.30;1.80;;;;;24.50;96630.00;;;;5050834;28;20669;-90
2023/08/31 12:20:45;;;;;;;3.23;1.60;;;;;24.70;96630.00;;;;5058680;28;20214;-89
2023/08/31 12:23:35;;;;;;;2.13;1.93;;;;;24.80;96629.00;;;;5054830;28;20670;-90
2023/08/31 12:26:24;;;;;;;1.57;1.27;;;;;25.70;96576.00;;;;5060898;28;20208;-90
2023/08/31 12:29:15;;;;;;;3.03;1.23;;;;;26.90;96575.00;;;;5061260;28;20224;-87
2023/08/31 12:32:09;;;;;;;2.30;1.30;;;;;25.00;96567.00;;;;5053964;28;20203;-88
2023/08/31 12:34:58;;;;;;;2.73;1.13;;;;;24.50;96620.00;;;;5048649;28;20231;-89
2023/08/31 12:37:47;;;;;;;1.50;1.27;;;;;24.70;96622.00;;;;5056779;28;20202;-88
2023/08/31 12:40:40;;;;;;;2.63;1.50;;;;;23.90;96616.00;;;;5039560;28;20209;-91
2023/08/31 12:43:38;;;;;;;1.70;1.60;;;;;24.90;96558.00;;;;5057555;28;20197;-89
2023/08/31 12:46:43;;;;;;;1.60;1.40;;;;;25.60;96615.00;;;;5067298;22;20744;-89
2023/08/31 12:49:49;;;;;;;1.50;1.40;;;;;25.90;96626.00;;;;5053768;28;20218;-90
2023/08/31 12:52:50;;;;;;;2.10;1.37;;;;;27.30;96574.00;;;;5054349;28;20209;-89
2023/08/31 12:55:53;;;;;;;2.73;1.30;;;;;26.40;96573.00;;;;5041149;28;20335;-88
2023/08/31 12:58:43;;;;;;;1.53;1.33;;;;;25.60;96571.00;;;;5046264;28;20196;-88
2023/08/31 13:01:38;;;;;;;1.27;1.17;;;;;24.70;96637.00;;;;5029641;28;20207;-87
2023/08/31 13:04:32;;;;;;;2.30;1.00;;;;;25.70;96564.00;;;;5028592;28;20234;-88
2023/08/31 13:07:23;;;;;;;1.10;1.00;;;;;24.80;96591.00;;;;5027319;28;20203;-89
2023/08/31 13:10:12;;;;;;;1.60;1.40;;;;;25.10;96631.00;;;;5029309;28;20255;-91
2023/08/31 13:13:25;;;;;;;1.37;1.27;;;;;26.40;96579.00;;;;5028160;28;20584;-88
2023/08/31 13:16:18;;;;;;;1.20;1.10;;;;;27.40;96579.00;;;;5014526;28;20212;-89
2023/08/31 13:19:33;;;;;;;3.53;1.10;;;;;28.30;96582.00;;;;5039233;28;20201;-91
2023/08/31 13:22:41;;;;;;;1.35;1.25;;;;;25.80;96621.00;;;;5019907;28;20203;-89
2023/08/31 13:25:31;;;;;;;2.67;1.37;;;;;24.60;96632.00;;;;5032086;28;20224;-86
2023/08/31 13:28:49;;;;;;;1.67;1.43;;;;;24.50;96650.00;;;;5030250;28;20225;-90
2023/08/31 13:31:40;;;;;;;2.93;1.20;;;;;24.60;96647.00;;;;5022823;28;20212;-88
2023/08/31 13:38:04;;;;;;;1.73;1.23;;;;;28.00;96627.00;;;;5031650;28;20202;-90
2023/08/31 13:41:04;;;;;;;1.77;1.67;;;;;27.90;96581.00;;;;5026914;28;20262;-90
2023/08/31 13:43:55;;;;;;;1.23;1.00;;;;;27.80;96640.00;;;;5030616;28;20210;-90
2023/08/31 13:46:56;;;;;;;2.83;2.57;;;;;28.00;96652.00;;;;5027812;28;20216;-89
2023/08/31 13:49:56;;;;;;;1.27;1.00;;;;;25.30;96655.00;;;;5025496;28;20221;-88
2023/08/31 13:53:43;;;;;;;1.40;1.20;;;;;24.80;96664.00;;;;5035249;28;20200;-90
2023/08/31 13:56:40;;;;;;;1.60;1.00;;;;;24.70;96658.00;;;;5042626;28;20207;-88
2023/08/31 13:59:30;;;;;;;1.17;1.13;;;;;24.60;96664.00;;;;5032629;28;20204;-89
2023/08/31 14:02:20;;;;;;;2.27;1.10;;;;;24.20;96666.00;;;;5031949;28;20596;-89
2023/08/31 14:05:25;;;;;;;3.07;1.33;;;;;23.30;96666.00;;;;5032559;28;20248;-89
2023/08/31 14:08:23;;;;;;;1.40;1.30;;;;;24.10;96657.00;;;;5014080;28;20197;-88
2023/08/31 14:11:20;;;;;;;1.30;1.20;;;;;24.60;96643.00;;;;5031528;28;20205;-90
2023/08/31 14:25:13;;;;;;;1.10;1.00;;;;;24.70;96655.00;;;;5019405;28;20318;-88
2023/08/31 14:28:23;;;;;;;4.87;4.07;;;;;25.20;96654.00;;;;5014864;28;20240;-89
2023/08/31 14:31:15;;;;;;;4.47;2.20;;;;;26.00;96652.00;;;;5013167;28;20206;-88
2023/08/31 14:34:05;;;;;;;1.73;1.50;;;;;25.80;96654.00;;;;5012513;28;20230;-89